Time;durP1;ratioP1;P1;durP2;ratioP2;P2;SDS_P1;SDS_P2;PMS_P1;PMS_P2;Temp;Humidity;BMP_temperature;BMP_pressure;BME280_temperature;BME280_humidity;BME280_pressure;Samples;Min_cycle;Max_cycle;Signal;HPM_P1;HPM_P2
2022/10/31 00:00:59;;;;;;;15.95;10.27;;;;;;;13.48;100.00;101879.72;5049210;28;20479;-69
2022/10/31 00:03:26;;;;;;;16.23;10.10;;;;;;;13.46;100.00;101887.25;5037859;28;20043;-68
2022/10/31 00:05:52;;;;;;;18.98;10.07;;;;;;;13.41;100.00;101878.94;5051145;28;20115;-68
2022/10/31 00:08:18;;;;;;;19.27;11.57;;;;;;;13.40;100.00;101888.13;5052736;28;20486;-68
2022/10/31 00:10:45;;;;;;;18.98;11.00;;;;;;;13.41;100.00;101890.63;5050130;28;20078;-67
2022/10/31 00:13:12;;;;;;;18.05;10.65;;;;;;;13.35;100.00;101887.97;5034593;28;20021;-68
2022/10/31 00:15:39;;;;;;;17.98;11.13;;;;;;;13.38;100.00;101882.91;5052583;28;20067;-68
2022/10/31 00:18:06;;;;;;;16.90;9.85;;;;;;;13.34;100.00;101883.56;5052140;28;20032;-68
2022/10/31 00:20:32;;;;;;;14.25;10.13;;;;;;;13.32;100.00;101885.66;5053001;28;20033;-68
2022/10/31 00:22:58;;;;;;;17.90;10.43;;;;;;;13.36;100.00;101881.47;5051377;28;20047;-68
2022/10/31 00:25:24;;;;;;;20.02;11.52;;;;;;;13.34;100.00;101892.56;5052924;28;20036;-68
2022/10/31 00:27:49;;;;;;;18.83;10.75;;;;;;;13.27;100.00;101887.13;5051192;28;20021;-69
2022/10/31 00:30:15;;;;;;;17.90;10.80;;;;;;;13.28;100.00;101880.63;5041219;28;20029;-67
2022/10/31 00:32:40;;;;;;;16.63;10.32;;;;;;;13.25;100.00;101881.06;5037898;28;20027;-69
2022/10/31 00:35:06;;;;;;;18.88;10.60;;;;;;;13.23;100.00;101883.19;5053063;28;20055;-69
2022/10/31 00:37:31;;;;;;;17.92;10.30;;;;;;;13.20;100.00;101883.63;5045797;28;20045;-67
2022/10/31 00:39:56;;;;;;;13.55;10.30;;;;;;;13.18;100.00;101876.72;5032693;28;20080;-68
2022/10/31 00:42:22;;;;;;;20.17;10.52;;;;;;;13.10;100.00;101866.94;5034991;28;20036;-68
2022/10/31 00:44:47;;;;;;;16.45;11.10;;;;;;;13.09;100.00;101865.28;5050955;28;20102;-69
2022/10/31 00:47:12;;;;;;;15.88;10.60;;;;;;;13.12;100.00;101875.72;5052923;28;20025;-68
2022/10/31 00:49:37;;;;;;;16.65;10.70;;;;;;;13.12;100.00;101876.53;5052484;28;20029;-68
2022/10/31 00:52:03;;;;;;;16.20;9.68;;;;;;;13.16;100.00;101874.22;5050504;28;20036;-69
2022/10/31 00:54:28;;;;;;;15.38;10.20;;;;;;;13.12;100.00;101868.41;5051319;28;20464;-67
2022/10/31 00:56:53;;;;;;;16.38;10.57;;;;;;;13.07;100.00;101862.78;5051990;28;20494;-68
2022/10/31 00:59:19;;;;;;;16.55;10.07;;;;;;;13.05;100.00;101867.59;5052483;28;20025;-68
2022/10/31 01:01:44;;;;;;;16.15;10.02;;;;;;;13.01;100.00;101873.69;5049955;28;20104;-69
2022/10/31 01:04:09;;;;;;;15.45;10.30;;;;;;;12.97;100.00;101878.72;5050935;28;20047;-69
2022/10/31 01:06:35;;;;;;;17.48;9.52;;;;;;;12.97;100.00;101875.16;5052455;28;20029;-68
2022/10/31 01:09:00;;;;;;;16.70;10.77;;;;;;;12.91;100.00;101858.66;5049570;28;20678;-69
2022/10/31 01:11:25;;;;;;;17.83;10.50;;;;;;;12.95;100.00;101861.78;5052432;28;20067;-69
2022/10/31 01:13:52;;;;;;;14.60;10.15;;;;;;;12.96;100.00;101859.91;5050472;28;20021;-69
2022/10/31 01:16:22;;;;;;;18.92;11.07;;;;;;;12.92;100.00;101840.47;5051845;28;20033;-69
2022/10/31 01:18:47;;;;;;;17.60;10.77;;;;;;;12.91;100.00;101842.38;5052407;28;20108;-69
2022/10/31 01:21:19;;;;;;;16.80;11.50;;;;;;;12.92;100.00;101852.19;5051753;28;20049;-68
2022/10/31 01:23:44;;;;;;;;;;;;;;;13.08;100.00;101855.47;5049798;28;20035;-69
2022/10/31 01:26:11;;;;;;;16.13;10.93;;;;;;;12.89;100.00;101852.63;5051624;28;19912;-69
2022/10/31 01:28:42;;;;;;;17.85;10.98;;;;;;;12.88;100.00;101859.09;5052285;28;20029;-69
2022/10/31 01:31:09;;;;;;;21.15;10.40;;;;;;;12.80;100.00;101853.91;5052373;28;20124;-70
2022/10/31 01:33:35;;;;;;;15.35;10.65;;;;;;;12.79;100.00;101854.97;5050101;28;20029;-68
2022/10/31 01:36:10;;;;;;;18.08;10.50;;;;;;;12.68;100.00;101859.19;5050624;28;20044;-69
2022/10/31 01:38:35;;;;;;;16.25;10.60;;;;;;;12.69;100.00;101871.69;5036187;28;20112;-69
2022/10/31 01:41:00;;;;;;;14.65;10.25;;;;;;;12.68;100.00;101861.91;5040927;28;20152;-69
2022/10/31 01:43:45;;;;;;;16.58;10.88;;;;;;;12.68;100.00;101867.34;5050942;28;20376;-69
2022/10/31 01:46:12;;;;;;;15.23;10.50;;;;;;;12.63;100.00;101869.03;5054737;28;20444;-69
2022/10/31 01:48:39;;;;;;;13.70;10.35;;;;;;;12.57;100.00;101862.56;5054583;28;20171;-70
2022/10/31 01:51:05;;;;;;;16.60;10.63;;;;;;;12.53;100.00;101862.16;5054974;28;20021;-68
2022/10/31 01:53:31;;;;;;;15.18;9.75;;;;;;;12.46;100.00;101861.34;5055156;28;20064;-70
2022/10/31 01:55:58;;;;;;;12.63;9.85;;;;;;;12.43;100.00;101856.34;5051116;28;20056;-68
2022/10/31 01:58:27;;;;;;;16.23;10.93;;;;;;;12.35;100.00;101859.25;5055767;28;20035;-68
2022/10/31 02:00:57;;;;;;;17.98;10.98;;;;;;;12.40;100.00;101854.03;5051170;28;20036;-69
2022/10/31 02:03:25;;;;;;;15.25;11.07;;;;;;;12.38;100.00;101856.16;5051413;28;20032;-70
2022/10/31 02:05:52;;;;;;;15.68;10.13;;;;;;;12.32;100.00;101860.53;5050923;28;20029;-69
2022/10/31 02:08:33;;;;;;;13.63;9.75;;;;;;;12.32;100.00;101854.25;5055218;28;20032;-70
2022/10/31 02:11:01;;;;;;;20.02;11.77;;;;;;;12.35;100.00;101853.84;5055219;28;20024;-69
2022/10/31 02:13:28;;;;;;;16.60;11.07;;;;;;;12.32;100.00;101848.81;5050083;28;20104;-69
2022/10/31 02:15:57;;;;;;;18.30;10.82;;;;;;;12.28;100.00;101850.31;5053835;28;20024;-69
2022/10/31 02:18:25;;;;;;;18.52;11.45;;;;;;;12.29;100.00;101838.41;5054952;28;20025;-69
2022/10/31 02:20:56;;;;;;;18.02;10.32;;;;;;;12.33;100.00;101845.91;5054341;28;20376;-69
2022/10/31 02:23:40;;;;;;;18.50;10.98;;;;;;;12.33;100.00;101850.50;5054680;28;20033;-69
2022/10/31 02:26:38;;;;;;;15.95;10.48;;;;;;;12.30;100.00;101843.63;5050645;28;20381;-71
2022/10/31 02:29:35;;;;;;;17.38;10.52;;;;;;;12.24;100.00;101841.75;5053425;28;20024;-69
2022/10/31 02:32:07;;;;;;;19.38;10.68;;;;;;;12.15;100.00;101841.16;5048005;28;20030;-69
2022/10/31 02:34:36;;;;;;;;;;;;;;;12.34;100.00;101839.44;5035537;28;20028;-68
2022/10/31 02:37:13;;;;;;;16.77;11.10;;;;;;;12.15;100.00;101838.44;5046309;28;19947;-69
2022/10/31 02:39:56;;;;;;;16.85;10.43;;;;;;;12.06;100.00;101845.13;5054978;28;20040;-69
2022/10/31 02:42:33;;;;;;;20.23;10.70;;;;;;;12.00;100.00;101846.81;5050032;28;20028;-68
2022/10/31 02:45:03;;;;;;;14.15;10.48;;;;;;;11.93;100.00;101837.84;5033372;28;20061;-69
2022/10/31 02:47:33;;;;;;;16.20;10.38;;;;;;;11.93;100.00;101845.16;5045083;28;20027;-69
2022/10/31 02:50:08;;;;;;;14.50;9.20;;;;;;;11.94;100.00;101835.94;5053765;28;20055;-69
2022/10/31 02:52:35;;;;;;;15.20;10.10;;;;;;;11.95;100.00;101837.63;5054161;28;20024;-68
2022/10/31 02:55:22;;;;;;;14.55;10.20;;;;;;;11.95;100.00;101834.91;5054311;28;20096;-69
2022/10/31 02:57:49;;;;;;;14.20;10.52;;;;;;;11.88;100.00;101838.44;5053087;28;20167;-68
2022/10/31 03:00:15;;;;;;;15.75;10.68;;;;;;;11.88;100.00;101837.59;5046882;28;20111;-69
2022/10/31 03:02:54;;;;;;;15.85;10.30;;;;;;;11.91;100.00;101841.75;5033109;28;20075;-69
2022/10/31 03:05:48;;;;;;;16.50;10.60;;;;;;;11.92;100.00;101846.97;5037988;28;20028;-68
2022/10/31 03:08:26;;;;;;;17.95;11.15;;;;;;;11.91;100.00;101841.75;5034509;28;20403;-69
2022/10/31 03:11:01;;;;;;;14.95;10.48;;;;;;;11.80;100.00;101835.91;5034258;28;20025;-68
2022/10/31 03:13:56;;;;;;;16.52;10.93;;;;;;;11.88;100.00;101841.16;5047838;28;20370;-69
2022/10/31 03:16:45;;;;;;;18.80;11.27;;;;;;;11.93;100.00;101845.16;5052473;28;20112;-68
2022/10/31 03:19:15;;;;;;;17.10;11.38;;;;;;;11.94;100.00;101844.94;5050583;28;20029;-68
2022/10/31 03:21:57;;;;;;;17.77;10.63;;;;;;;11.90;100.00;101835.50;5050892;28;20533;-68
2022/10/31 03:24:28;;;;;;;17.10;11.25;;;;;;;11.90;100.00;101840.94;5050174;28;20052;-69
2022/10/31 03:26:57;;;;;;;15.93;10.87;;;;;;;11.94;100.00;101841.38;5052086;28;20033;-68
2022/10/31 03:29:28;;;;;;;14.57;10.75;;;;;;;11.84;100.00;101839.91;5054048;28;20047;-68
2022/10/31 03:32:01;;;;;;;13.57;10.70;;;;;;;11.91;100.00;101842.59;5053907;28;20360;-69
2022/10/31 03:34:29;;;;;;;17.42;10.88;;;;;;;11.81;100.00;101842.19;5052704;28;20021;-68
2022/10/31 03:36:57;;;;;;;14.75;9.98;;;;;;;11.87;100.00;101834.03;5052476;28;20025;-69
2022/10/31 03:39:23;;;;;;;18.98;10.57;;;;;;;11.84;100.00;101839.91;5032320;28;20026;-70
2022/10/31 03:42:02;;;;;;;15.18;10.40;;;;;;;11.79;100.00;101837.00;5033615;28;20449;-68
2022/10/31 03:44:30;;;;;;;16.83;10.73;;;;;;;11.75;100.00;101835.72;5033661;28;20039;-68
2022/10/31 03:46:56;;;;;;;14.35;10.23;;;;;;;11.72;100.00;101830.72;5042712;28;20402;-68
2022/10/31 03:49:22;;;;;;;17.60;9.60;;;;;;;11.65;100.00;101838.84;5050599;28;20032;-69
2022/10/31 03:52:01;;;;;;;13.32;9.45;;;;;;;11.63;100.00;101831.97;5053509;28;20089;-69
2022/10/31 03:54:37;;;;;;;16.63;10.07;;;;;;;11.59;100.00;101823.41;5051862;28;20040;-69
2022/10/31 03:57:23;;;;;;;15.77;10.40;;;;;;;11.60;100.00;101832.38;5053284;28;20079;-69
2022/10/31 03:59:55;;;;;;;15.80;10.32;;;;;;;11.59;100.00;101825.28;5053118;28;20025;-69
2022/10/31 04:02:25;;;;;;;17.52;10.88;;;;;;;11.58;100.00;101823.63;5049377;28;20407;-68
2022/10/31 04:04:51;;;;;;;15.20;10.65;;;;;;;11.60;100.00;101830.50;5052158;28;20032;-68
2022/10/31 04:07:18;;;;;;;17.15;10.50;;;;;;;11.60;100.00;101835.94;5053330;28;20021;-69
2022/10/31 04:09:47;;;;;;;14.93;10.80;;;;;;;11.59;100.00;101838.84;5051921;28;20056;-69
2022/10/31 04:12:16;;;;;;;15.23;10.63;;;;;;;11.61;100.00;101834.03;5051505;28;20059;-68
2022/10/31 04:14:44;;;;;;;13.70;10.73;;;;;;;11.55;100.00;101837.59;5051205;28;20029;-69
2022/10/31 04:17:14;;;;;;;16.48;10.05;;;;;;;11.57;100.00;101836.34;5051923;28;20145;-68
2022/10/31 04:19:39;;;;;;;14.55;10.18;;;;;;;11.56;100.00;101833.84;5052124;28;20507;-69
2022/10/31 04:22:05;;;;;;;15.80;10.40;;;;;;;11.51;100.00;101832.56;5052566;28;20052;-69
2022/10/31 04:24:30;;;;;;;17.08;10.95;;;;;;;11.57;100.00;101835.53;5052001;28;20087;-69
2022/10/31 04:26:55;;;;;;;14.68;10.98;;;;;;;11.56;100.00;101831.94;5052543;28;20021;-68
2022/10/31 04:29:20;;;;;;;17.35;10.95;;;;;;;11.56;100.00;101844.69;5045812;28;20029;-70
2022/10/31 04:31:46;;;;;;;15.23;11.45;;;;;;;11.56;100.00;101841.97;5052620;28;20028;-68
2022/10/31 04:34:11;;;;;;;17.85;11.82;;;;;;;11.60;100.00;101835.94;5052280;28;20559;-68
2022/10/31 04:36:36;;;;;;;17.83;11.82;;;;;;;11.63;100.00;101851.78;5050748;28;20638;-69
2022/10/31 04:39:02;;;;;;;20.17;11.48;;;;;;;11.62;100.00;101844.69;5046657;28;20033;-68
2022/10/31 04:41:27;;;;;;;17.67;11.65;;;;;;;11.59;100.00;101842.38;5043555;28;20464;-70
2022/10/31 04:43:52;;;;;;;19.88;11.60;;;;;;;11.66;100.00;101840.50;5048663;28;20078;-70
2022/10/31 04:46:18;;;;;;;18.45;11.82;;;;;;;11.65;100.00;101840.72;5050823;28;20033;-69
2022/10/31 04:48:43;;;;;;;18.42;11.80;;;;;;;11.71;100.00;101837.19;5032743;28;20024;-68
2022/10/31 04:51:08;;;;;;;18.33;12.02;;;;;;;11.74;100.00;101835.94;5047186;28;20124;-68
2022/10/31 04:53:33;;;;;;;18.02;12.70;;;;;;;11.74;100.00;101834.03;5052323;28;20373;-69
2022/10/31 04:56:00;;;;;;;21.73;13.52;;;;;;;11.76;100.00;101836.56;5033573;28;20033;-68
2022/10/31 04:58:26;;;;;;;18.60;12.65;;;;;;;11.75;100.00;101830.31;5035185;28;20083;-69
2022/10/31 05:00:53;;;;;;;18.33;12.88;;;;;;;11.69;100.00;101840.09;5043446;28;20128;-69
2022/10/31 05:03:18;;;;;;;20.40;12.98;;;;;;;11.69;100.00;101833.84;5031034;28;20358;-68
2022/10/31 05:05:43;;;;;;;22.13;12.50;;;;;;;11.70;100.00;101827.41;5051637;28;20036;-69
2022/10/31 05:08:08;;;;;;;18.02;12.63;;;;;;;11.74;100.00;101828.63;5045560;28;20023;-69
2022/10/31 05:10:34;;;;;;;18.88;12.38;;;;;;;11.69;100.00;101823.81;5051741;28;20086;-70
2022/10/31 05:13:01;;;;;;;17.90;11.80;;;;;;;11.64;100.00;101830.91;5055790;28;20033;-68
2022/10/31 05:15:27;;;;;;;16.08;11.05;;;;;;;11.61;100.00;101831.31;5054784;28;20056;-73
2022/10/31 05:17:53;;;;;;;17.27;11.13;;;;;;;11.61;100.00;101825.91;5056553;28;20449;-71
2022/10/31 05:20:21;;;;;;;17.08;11.65;;;;;;;11.49;100.00;101829.25;5054154;28;20040;-70
2022/10/31 05:22:48;;;;;;;17.13;11.80;;;;;;;11.49;100.00;101831.97;5043242;28;20026;-70
2022/10/31 05:25:14;;;;;;;15.90;11.40;;;;;;;11.46;100.00;101824.25;5036218;28;20029;-69
2022/10/31 05:27:41;;;;;;;15.00;11.75;;;;;;;11.41;100.00;101824.00;5044414;28;20032;-68
2022/10/31 05:30:07;;;;;;;20.15;12.15;;;;;;;11.41;100.00;101817.78;5055265;28;20024;-69
2022/10/31 05:32:46;;;;;;;17.58;12.10;;;;;;;11.42;100.00;101820.28;5055086;28;20033;-69
2022/10/31 05:35:15;;;;;;;18.13;11.73;;;;;;;11.37;100.00;101813.78;5055592;28;20025;-69
2022/10/31 05:37:40;;;;;;;18.88;11.25;;;;;;;11.40;100.00;101808.81;5055840;28;20032;-69
2022/10/31 05:40:07;;;;;;;17.63;12.00;;;;;;;11.45;100.00;101817.16;5054839;28;20376;-69
2022/10/31 05:42:33;;;;;;;18.15;11.93;;;;;;;11.39;100.00;101811.72;5048304;28;20052;-69
2022/10/31 05:44:59;;;;;;;20.02;11.90;;;;;;;11.35;100.00;101803.16;5035609;28;20030;-69
2022/10/31 05:47:24;;;;;;;20.73;13.23;;;;;;;11.34;100.00;101809.66;5036143;28;20037;-68
2022/10/31 05:49:49;;;;;;;20.00;12.02;;;;;;;11.32;100.00;101809.00;5036224;28;20111;-69
2022/10/31 05:52:15;;;;;;;18.33;11.93;;;;;;;11.34;100.00;101805.03;5035579;28;20515;-69
2022/10/31 05:54:40;;;;;;;19.35;12.32;;;;;;;11.29;100.00;101806.69;5035656;28;20064;-69
2022/10/31 05:57:06;;;;;;;19.30;12.70;;;;;;;11.31;100.00;101801.94;5035884;28;20036;-69
2022/10/31 05:59:31;;;;;;;19.30;12.80;;;;;;;11.27;100.00;101797.94;5044224;28;20468;-70
2022/10/31 06:01:56;;;;;;;18.42;13.57;;;;;;;11.29;100.00;101799.44;5052175;28;20033;-69
2022/10/31 06:04:21;;;;;;;16.63;12.25;;;;;;;11.26;100.00;101796.28;5055143;28;20105;-69
2022/10/31 06:06:47;;;;;;;18.45;13.07;;;;;;;11.27;100.00;101795.25;5055667;28;20033;-69
2022/10/31 06:09:12;;;;;;;20.50;13.32;;;;;;;11.25;100.00;101794.63;5055298;28;20028;-69
2022/10/31 06:11:37;;;;;;;17.67;12.50;;;;;;;11.21;100.00;101785.22;5054756;28;20021;-69
2022/10/31 06:14:04;;;;;;;15.68;12.65;;;;;;;11.17;100.00;101788.34;5055312;28;20021;-68
2022/10/31 06:16:29;;;;;;;20.08;13.32;;;;;;;11.20;100.00;101780.84;5041829;28;20032;-69
2022/10/31 06:18:54;;;;;;;20.08;13.48;;;;;;;11.25;100.00;101789.22;5035477;28;20021;-69
2022/10/31 06:21:19;;;;;;;18.15;13.63;;;;;;;11.24;100.00;101788.34;5031978;28;20494;-69
2022/10/31 06:23:45;;;;;;;26.48;14.25;;;;;;;11.18;100.00;101789.19;4802373;28;1079754;-70
2022/10/31 06:26:10;;;;;;;19.65;13.68;;;;;;;11.21;100.00;101787.94;5010268;27;20037;-69
2022/10/31 06:28:35;;;;;;;18.98;13.30;;;;;;;11.23;100.00;101789.41;5008630;28;20577;-69
2022/10/31 06:31:01;;;;;;;18.95;13.82;;;;;;;11.22;100.00;101789.59;5029076;28;20380;-69
2022/10/31 06:33:26;;;;;;;19.65;13.80;;;;;;;11.23;100.00;101796.69;5035173;28;20029;-69
2022/10/31 06:35:51;;;;;;;21.30;13.52;;;;;;;11.21;100.00;101796.06;5023906;28;20453;-69
2022/10/31 06:38:17;;;;;;;21.55;14.20;;;;;;;11.25;100.00;101805.47;5014857;28;20065;-69
2022/10/31 06:40:42;;;;;;;23.35;14.98;;;;;;;11.22;100.00;101803.13;5025656;28;20033;-70
2022/10/31 06:43:07;;;;;;;24.02;14.52;;;;;;;11.23;100.00;101800.25;5034818;28;20068;-69
2022/10/31 06:45:33;;;;;;;24.30;15.40;;;;;;;11.21;100.00;101796.91;5035012;28;20629;-69
2022/10/31 06:47:58;;;;;;;20.98;14.55;;;;;;;11.20;100.00;101797.94;5034930;28;20029;-69
2022/10/31 06:50:24;;;;;;;23.75;14.75;;;;;;;11.25;100.00;101797.34;5032084;28;20024;-70
2022/10/31 06:52:50;;;;;;;22.35;14.73;;;;;;;11.25;100.00;101791.91;5035175;28;20031;-69
2022/10/31 06:55:16;;;;;;;25.63;14.80;;;;;;;11.27;100.00;101797.94;5034319;28;20028;-70
2022/10/31 06:57:41;;;;;;;25.98;15.13;;;;;;;11.33;100.00;101799.84;5030939;28;20021;-69
2022/10/31 07:00:07;;;;;;;25.77;15.55;;;;;;;11.36;100.00;101785.88;5034501;28;20060;-70
2022/10/31 07:02:33;;;;;;;23.80;15.95;;;;;;;11.44;100.00;101793.78;5032179;28;20076;-70
2022/10/31 07:04:58;;;;;;;22.08;15.95;;;;;;;11.44;100.00;101795.66;5033086;28;20457;-68
2022/10/31 07:07:23;;;;;;;26.48;16.08;;;;;;;11.51;100.00;101794.63;5021314;28;20038;-70
2022/10/31 07:09:48;;;;;;;24.63;16.35;;;;;;;11.56;100.00;101795.88;5034489;28;20025;-69
2022/10/31 07:12:16;;;;;;;26.13;17.52;;;;;;;11.61;100.00;101796.09;5034012;28;20113;-70
2022/10/31 07:14:41;;;;;;;25.65;16.90;;;;;;;11.67;100.00;101792.53;5034455;28;20108;-70
2022/10/31 07:17:07;;;;;;;27.33;16.35;;;;;;;11.69;100.00;101790.47;5032286;28;20446;-70
2022/10/31 07:19:32;;;;;;;24.33;17.08;;;;;;;11.74;100.00;101796.09;5034298;28;20029;-69
2022/10/31 07:21:57;;;;;;;25.42;17.73;;;;;;;11.77;100.00;101794.84;5034008;28;20108;-69
2022/10/31 07:24:22;;;;;;;28.40;18.05;;;;;;;11.80;100.00;101800.66;5034033;28;20594;-70
2022/10/31 07:26:48;;;;;;;30.55;18.05;;;;;;;11.78;100.00;101797.34;5027277;28;20030;-69
2022/10/31 07:29:14;;;;;;;30.55;18.23;;;;;;;11.83;100.00;101797.53;5013968;28;20101;-69
2022/10/31 07:31:39;;;;;;;29.23;17.33;;;;;;;11.90;100.00;101805.69;5014357;28;20053;-68
2022/10/31 07:34:05;;;;;;;25.63;16.95;;;;;;;11.93;100.00;101809.88;5013003;28;20104;-69
2022/10/31 07:36:30;;;;;;;25.23;16.55;;;;;;;11.93;100.00;101812.59;5017757;28;20051;-70
2022/10/31 07:38:55;;;;;;;24.08;16.73;;;;;;;11.98;100.00;101810.91;5033694;28;20100;-69
2022/10/31 07:41:21;;;;;;;27.08;18.23;;;;;;;12.03;100.00;101810.28;5032673;28;20017;-68
2022/10/31 07:43:46;;;;;;;28.67;17.95;;;;;;;12.02;100.00;101809.44;5024370;28;20030;-69
2022/10/31 07:46:11;;;;;;;28.38;17.67;;;;;;;12.03;100.00;101808.41;5013356;28;20026;-70
2022/10/31 07:48:37;;;;;;;27.42;18.15;;;;;;;12.10;100.00;101802.13;5032505;28;20037;-70
2022/10/31 07:51:02;;;;;;;31.30;18.63;;;;;;;12.08;100.00;101796.06;5033723;28;20028;-69
2022/10/31 07:53:27;;;;;;;27.73;19.02;;;;;;;12.11;100.00;101807.34;5033304;28;20060;-68
2022/10/31 07:55:53;;;;;;;31.30;19.85;;;;;;;12.12;100.00;101810.88;5033690;28;20025;-69
2022/10/31 07:58:18;;;;;;;28.23;20.05;;;;;;;12.15;100.00;101805.03;5024550;28;20022;-69
2022/10/31 08:00:45;;;;;;;30.63;20.45;;;;;;;12.20;100.00;101811.50;5011613;28;20025;-69
2022/10/31 08:03:13;;;;;;;32.60;20.55;;;;;;;12.23;100.00;101816.50;5013369;28;20354;-72
2022/10/31 08:05:40;;;;;;;27.48;20.13;;;;;;;12.28;100.00;101813.16;5012610;28;20017;-72
2022/10/31 08:08:06;;;;;;;30.40;20.95;;;;;;;12.36;100.00;101820.22;5027393;28;20033;-71
2022/10/31 08:10:33;;;;;;;30.23;20.90;;;;;;;12.46;100.00;101817.06;5032042;28;20488;-71
2022/10/31 08:13:03;;;;;;;31.25;21.48;;;;;;;12.46;100.00;101815.19;5032052;28;20025;-71
2022/10/31 08:15:29;;;;;;;32.17;23.85;;;;;;;12.56;100.00;101812.88;5032957;28;20353;-71
2022/10/31 08:17:55;;;;;;;31.75;21.73;;;;;;;12.61;100.00;101814.09;5032330;28;20036;-73
2022/10/31 08:20:21;;;;;;;32.60;23.25;;;;;;;12.67;100.00;101808.63;5027413;28;20118;-73
2022/10/31 08:23:00;;;;;;;35.10;23.10;;;;;;;12.73;100.00;101796.09;5038691;28;20476;-74
2022/10/31 08:25:27;;;;;;;31.02;22.02;;;;;;;12.75;100.00;101793.97;5031391;28;20032;-73
2022/10/31 08:27:54;;;;;;;37.00;23.17;;;;;;;12.81;100.00;101803.16;5031245;28;20032;-74
2022/10/31 08:30:21;;;;;;;35.40;22.77;;;;;;;12.86;100.00;101815.03;5030422;28;20032;-72
2022/10/31 08:32:47;;;;;;;33.28;24.10;;;;;;;12.93;100.00;101813.09;5041711;28;20044;-73
2022/10/31 08:35:14;;;;;;;36.78;23.98;;;;;;;13.02;100.00;101800.09;5040400;28;20043;-70
2022/10/31 08:37:39;;;;;;;36.15;25.58;;;;;;;13.05;100.00;101796.94;5030897;28;20104;-70
2022/10/31 08:40:06;;;;;;;37.78;26.48;;;;;;;13.08;100.00;101792.97;5032098;28;20113;-71
2022/10/31 08:42:31;;;;;;;41.42;24.52;;;;;;;13.08;100.00;101768.50;5031007;28;20057;-71
2022/10/31 08:44:57;;;;;;;37.35;23.73;;;;;;;13.12;100.00;101751.53;5031024;28;20542;-72
2022/10/31 08:47:22;;;;;;;38.38;23.95;;;;;;;13.13;100.00;101752.38;5030713;28;20452;-72
2022/10/31 08:49:47;;;;;;;34.38;23.83;;;;;;;13.14;100.00;101754.03;5032079;28;20045;-71
2022/10/31 08:52:14;;;;;;;32.65;23.48;;;;;;;13.17;100.00;101748.16;5032066;28;20443;-71
2022/10/31 08:54:40;;;;;;;33.70;24.02;;;;;;;13.18;100.00;101760.72;5031864;28;20346;-71
2022/10/31 08:57:05;;;;;;;37.30;23.67;;;;;;;13.22;100.00;101780.94;5015063;28;20036;-71
2022/10/31 08:59:30;;;;;;;35.80;23.35;;;;;;;13.25;100.00;101783.22;5012008;28;20042;-72
2022/10/31 09:01:55;;;;;;;35.60;24.73;;;;;;;13.26;100.00;101774.00;5015195;28;20025;-71
2022/10/31 09:04:21;;;;;;;40.55;24.98;;;;;;;13.28;100.00;101774.63;5031708;28;20030;-71
2022/10/31 09:06:46;;;;;;;36.10;23.27;;;;;;;13.32;100.00;101771.50;5030923;28;20464;-74
2022/10/31 09:09:11;;;;;;;38.90;24.33;;;;;;;13.35;100.00;101768.34;5027904;28;20100;-71
2022/10/31 09:11:36;;;;;;;34.95;24.40;;;;;;;13.38;100.00;101773.34;5032175;28;20025;-75
2022/10/31 09:14:02;;;;;;;37.92;24.40;;;;;;;13.40;100.00;101776.66;5027995;28;20033;-73
2022/10/31 09:16:27;;;;;;;37.55;25.60;;;;;;;13.44;100.00;101778.72;5030158;28;20098;-80
2022/10/31 09:18:52;;;;;;;37.55;25.60;;;;;;;13.48;100.00;101795.41;5032416;28;20025;-75
2022/10/31 09:21:18;;;;;;;40.28;25.55;;;;;;;13.49;100.00;101775.34;5031106;28;20108;-71
2022/10/31 09:23:43;;;;;;;37.92;24.70;;;;;;;13.53;100.00;101757.53;5032165;28;20021;-72
2022/10/31 09:26:08;;;;;;;39.33;25.70;;;;;;;13.55;100.00;101751.88;5017999;28;20461;-72
2022/10/31 09:28:33;;;;;;;41.05;26.30;;;;;;;13.59;100.00;101728.63;5012135;28;20026;-72
2022/10/31 09:30:59;;;;;;;37.17;26.48;;;;;;;13.62;100.00;101739.06;5029557;28;20022;-73
2022/10/31 09:33:25;;;;;;;37.92;24.75;;;;;;;13.65;100.00;101731.25;5032173;28;20346;-73
2022/10/31 09:35:50;;;;;;;34.17;24.98;;;;;;;13.68;100.00;101716.41;5031332;28;20037;-73
2022/10/31 09:38:19;;;;;;;34.83;23.80;;;;;;;13.70;100.00;101703.38;5032203;28;20380;-73
2022/10/31 09:40:48;;;;;;;37.33;25.98;;;;;;;13.72;100.00;101703.16;5019015;28;20110;-73
2022/10/31 09:43:32;;;;;;;36.75;25.77;;;;;;;13.74;100.00;101704.63;5012414;28;20465;-75
2022/10/31 09:46:15;;;;;;;38.33;26.05;;;;;;;13.74;100.00;101720.09;5020777;28;20029;-73
2022/10/31 09:48:41;;;;;;;38.45;26.02;;;;;;;13.74;100.00;101725.53;5041202;28;20021;-75
2022/10/31 09:51:20;;;;;;;40.85;26.88;;;;;;;13.76;100.00;101726.97;5030353;28;20383;-71
2022/10/31 09:53:54;;;;;;;41.80;27.55;;;;;;;13.77;100.00;101723.19;5032050;28;20457;-72
2022/10/31 09:56:22;;;;;;;43.70;26.75;;;;;;;13.76;100.00;101702.50;5031000;28;20029;-71
2022/10/31 09:58:53;;;;;;;36.35;25.38;;;;;;;13.79;100.00;101712.91;5036181;28;20041;-71
2022/10/31 10:01:48;;;;;;;37.67;27.63;;;;;;;13.88;100.00;101726.25;5028109;28;20104;-73
2022/10/31 10:04:29;;;;;;;41.35;26.98;;;;;;;13.89;100.00;101704.25;5034434;28;20461;-75
2022/10/31 10:06:54;;;;;;;38.83;26.63;;;;;;;13.92;100.00;101687.47;5034238;28;20034;-71
2022/10/31 10:09:24;;;;;;;41.28;27.77;;;;;;;13.96;100.00;101671.50;5034992;28;20013;-72
2022/10/31 10:12:05;;;;;;;42.78;28.40;;;;;;;14.03;100.00;101671.44;5034255;28;20594;-73
2022/10/31 10:14:43;;;;;;;;;;;;;;;14.13;100.00;101671.72;5035143;28;20463;-72
2022/10/31 10:17:08;;;;;;;38.75;27.17;;;;;;;14.14;100.00;101676.09;5037532;28;20347;-72
2022/10/31 10:19:43;;;;;;;42.95;27.17;;;;;;;14.17;100.00;101672.94;5043201;28;20033;-72
2022/10/31 10:22:26;;;;;;;40.33;27.00;;;;;;;14.18;100.00;101666.44;5035707;28;20033;-70
2022/10/31 10:25:20;;;;;;;41.40;27.98;;;;;;;14.22;100.00;101653.19;5033413;28;20103;-71
2022/10/31 10:28:01;;;;;;;45.42;28.38;;;;;;;14.24;100.00;101642.91;5028049;28;20042;-72
2022/10/31 10:30:37;;;;;;;46.65;29.27;;;;;;;14.29;100.00;101645.75;5031561;28;20039;-72
2022/10/31 10:33:08;;;;;;;51.83;30.42;;;;;;;14.32;100.00;101640.69;5035328;28;20025;-72
2022/10/31 10:36:09;;;;;;;;;;;;;;;14.41;100.00;101664.88;5035082;28;20040;-73
2022/10/31 10:38:37;;;;;;;51.90;32.40;;;;;;;14.42;100.00;101661.91;4991981;28;19913;-73
2022/10/31 10:41:16;;;;;;;58.95;32.83;;;;;;;14.47;100.00;101658.50;5009996;28;20049;-71
2022/10/31 10:43:42;;;;;;;53.88;32.97;;;;;;;14.47;100.00;101662.03;5015031;28;20457;-75
2022/10/31 10:49:16;;;;;;;53.58;31.67;;;;;;;14.52;100.00;101659.47;5015298;28;20108;-75
2022/10/31 10:51:53;;;;;;;49.92;31.52;;;;;;;14.57;100.00;101655.22;5015170;28;20507;-71
2022/10/31 10:54:24;;;;;;;51.63;31.67;;;;;;;14.60;100.00;101650.16;5030719;28;20404;-72
2022/10/31 10:57:08;;;;;;;52.38;32.17;;;;;;;14.61;100.00;101634.66;5034876;28;20108;-71
2022/10/31 10:59:34;;;;;;;51.60;32.13;;;;;;;14.66;100.00;101635.63;5034644;28;20021;-71
2022/10/31 11:02:00;;;;;;;50.58;31.08;;;;;;;14.67;100.00;101631.84;5032301;28;20029;-77
2022/10/31 11:04:30;;;;;;;55.60;32.03;;;;;;;14.68;100.00;101636.22;5033019;28;20030;-71
2022/10/31 11:07:02;;;;;;;49.65;31.55;;;;;;;14.75;100.00;101635.28;5034757;28;20101;-73
2022/10/31 11:09:28;;;;;;;54.55;32.38;;;;;;;14.77;100.00;101636.72;5032231;28;20423;-72
2022/10/31 11:11:55;;;;;;;53.17;31.52;;;;;;;14.83;100.00;101640.41;5022304;28;20026;-72